Time;durP1;ratioP1;P1;durP2;ratioP2;P2;SDS_P1;SDS_P2;PMS_P1;PMS_P2;Temp;Humidity;BMP_temperature;BMP_pressure;BME280_temperature;BME280_humidity;BME280_pressure;Samples;Min_cycle;Max_cycle;Signal;HPM_P1;HPM_P2
2023/03/12 00:01:26;;;;;;;4.07;3.67;;;;;;;2.65;74.85;97520.88;5035974;28;20033;-52
2023/03/12 00:03:52;;;;;;;8.05;3.90;;;;;;;2.75;74.74;97542.03;5043510;28;20410;-50
2023/03/12 00:06:20;;;;;;;4.82;3.83;;;;;;;2.75;74.84;97525.38;5056131;28;20410;-53
2023/03/12 00:08:46;;;;;;;4.50;3.72;;;;;;;2.76;75.22;97527.84;5056277;28;20120;-54
2023/03/12 00:11:17;;;;;;;4.80;4.13;;;;;;;2.75;75.48;97520.91;5055940;28;20036;-50
2023/03/12 00:13:43;;;;;;;8.05;4.32;;;;;;;2.50;76.11;97477.28;5055877;28;20025;-52
2023/03/12 00:16:11;;;;;;;5.20;3.65;;;;;;;2.85;75.56;97499.81;5055592;28;20033;-48
2023/03/12 00:18:37;;;;;;;4.07;3.67;;;;;;;2.98;75.12;97502.22;5047547;28;20084;-50
2023/03/12 00:21:03;;;;;;;5.05;3.70;;;;;;;2.93;75.64;97504.44;5035670;28;20049;-52
2023/03/12 00:23:29;;;;;;;3.60;2.92;;;;;;;3.01;74.75;97489.59;5035569;28;20029;-52
2023/03/12 00:26:02;;;;;;;3.88;3.42;;;;;;;3.01;75.40;97494.88;5035761;28;20399;-50
2023/03/12 00:28:28;;;;;;;4.80;3.70;;;;;;;2.93;75.97;97472.72;5035782;28;20033;-48
2023/03/12 00:30:54;;;;;;;4.22;3.35;;;;;;;3.00;75.43;97482.63;5035440;28;20025;-52
2023/03/12 00:33:20;;;;;;;5.50;3.83;;;;;;;3.00;76.01;97466.78;5052059;28;20094;-51
2023/03/12 00:35:45;;;;;;;4.05;3.53;;;;;;;2.99;75.99;97473.03;5055280;28;20060;-51
2023/03/12 00:38:10;;;;;;;3.75;3.28;;;;;;;3.01;76.29;97455.22;5037451;28;20442;-54
2023/03/12 00:40:38;;;;;;;5.25;3.08;;;;;;;3.15;75.89;97450.53;5055112;28;20048;-53
2023/03/12 00:43:03;;;;;;;3.58;2.83;;;;;;;3.06;76.31;97438.97;5055267;28;20032;-53
2023/03/12 00:45:29;;;;;;;3.58;3.10;;;;;;;3.18;76.14;97450.28;5055270;28;20040;-55
2023/03/12 00:47:54;;;;;;;3.15;2.85;;;;;;;3.25;75.96;97432.03;5048076;28;20033;-51
2023/03/12 00:50:20;;;;;;;3.15;2.85;;;;;;;3.22;75.82;97422.56;5035884;28;20124;-50
2023/03/12 00:52:45;;;;;;;3.95;3.17;;;;;;;3.30;75.76;97419.25;5033537;28;20061;-50
2023/03/12 00:55:11;;;;;;;4.63;2.75;;;;;;;3.27;76.35;97415.06;5034937;28;20116;-54
2023/03/12 00:57:37;;;;;;;3.72;2.92;;;;;;;3.30;76.25;97417.44;5035201;28;20520;-50
2023/03/12 01:00:10;;;;;;;2.95;2.65;;;;;;;3.35;76.05;97418.81;5034493;28;20447;-50
2023/03/12 01:02:39;;;;;;;3.67;2.88;;;;;;;3.40;75.50;97406.03;5035092;28;20025;-48
2023/03/12 01:05:06;;;;;;;3.13;2.55;;;;;;;3.32;76.52;97404.06;5034584;28;20045;-51
2023/03/12 01:07:32;;;;;;;4.35;3.10;;;;;;;3.35;76.48;97387.06;5034915;28;20034;-53
2023/03/12 01:09:58;;;;;;;3.63;2.85;;;;;;;3.41;75.93;97392.66;5035239;28;20044;-51
2023/03/12 01:12:23;;;;;;;4.65;3.17;;;;;;;3.46;76.26;97386.97;5034995;28;20025;-61
2023/03/12 01:14:49;;;;;;;4.97;2.88;;;;;;;3.47;76.95;97385.97;5034800;28;20420;-49
2023/03/12 01:17:14;;;;;;;3.97;2.95;;;;;;;3.52;76.09;97375.81;5033666;28;20037;-49
2023/03/12 01:19:40;;;;;;;4.72;3.20;;;;;;;3.59;76.53;97379.56;5035024;28;20033;-50
2023/03/12 01:22:05;;;;;;;4.82;3.60;;;;;;;3.53;76.57;97369.53;5034330;28;20061;-50
2023/03/12 01:24:31;;;;;;;6.55;4.20;;;;;;;3.62;77.24;97369.66;5034547;28;20034;-50
2023/03/12 01:26:57;;;;;;;6.45;3.67;;;;;;;3.66;76.69;97365.78;5050064;28;20060;-50
2023/03/12 01:29:22;;;;;;;5.82;4.50;;;;;;;3.67;76.99;97351.59;5055347;28;20037;-49
2023/03/12 01:31:48;;;;;;;7.32;5.00;;;;;;;3.70;76.63;97368.00;5055168;28;20040;-50
2023/03/12 01:34:13;;;;;;;7.25;4.70;;;;;;;3.84;75.72;97340.25;5054190;28;20029;-50
2023/03/12 01:36:39;;;;;;;6.90;5.40;;;;;;;3.74;76.56;97342.09;5054332;28;20086;-51
2023/03/12 01:39:05;;;;;;;10.98;7.07;;;;;;;3.76;76.80;97341.97;5054598;28;20029;-48
2023/03/12 01:41:32;;;;;;;11.98;7.60;;;;;;;3.87;76.97;97341.78;5054110;28;20041;-49
2023/03/12 01:44:02;;;;;;;15.88;8.15;;;;;;;4.01;76.31;97335.19;5053819;28;20506;-49
2023/03/12 01:46:37;;;;;;;12.38;7.57;;;;;;;3.98;77.02;97335.50;5054175;28;20041;-50
2023/03/12 01:49:21;;;;;;;13.68;7.80;;;;;;;4.05;76.81;97331.28;5042407;28;20034;-52
2023/03/12 01:51:58;;;;;;;15.20;9.15;;;;;;;3.99;77.53;97331.88;5034043;28;20076;-50
2023/03/12 01:54:37;;;;;;;17.63;10.00;;;;;;;4.05;77.38;97328.63;5033904;28;20033;-50
2023/03/12 01:57:05;;;;;;;17.50;9.35;;;;;;;3.87;77.50;97294.13;5033683;28;20316;-49
2023/03/12 01:59:45;;;;;;;19.50;10.18;;;;;;;3.95;77.91;97301.38;5049705;28;20033;-53
2023/03/12 02:02:13;;;;;;;21.23;10.00;;;;;;;3.94;77.59;97278.53;5052771;28;20033;-49
2023/03/12 02:04:42;;;;;;;21.00;10.80;;;;;;;4.11;77.78;97306.03;5051699;28;20391;-49
2023/03/12 02:07:10;;;;;;;18.08;10.73;;;;;;;4.19;77.47;97305.31;5052869;28;20120;-56
2023/03/12 02:09:40;;;;;;;17.48;10.05;;;;;;;4.21;77.19;97290.13;5047108;28;20420;-49
2023/03/12 02:12:06;;;;;;;20.15;10.95;;;;;;;4.18;77.67;97282.47;5033285;28;20346;-51
2023/03/12 02:14:32;;;;;;;19.88;10.90;;;;;;;4.30;77.23;97289.22;5032857;28;20061;-52
2023/03/12 02:16:58;;;;;;;19.02;10.52;;;;;;;4.21;77.93;97285.63;5033561;28;20029;-52
2023/03/12 02:19:52;;;;;;;19.13;11.80;;;;;;;4.36;77.76;97307.22;5042925;28;20406;-51
2023/03/12 02:22:19;;;;;;;19.98;12.05;;;;;;;4.31;77.66;97277.66;5032637;28;20049;-52
2023/03/12 02:25:13;;;;;;;20.50;10.48;;;;;;;4.48;77.16;97277.84;5033376;28;20439;-52
2023/03/12 02:27:39;;;;;;;21.55;13.48;;;;;;;4.28;77.71;97248.81;5033472;28;20518;-49
2023/03/12 02:30:06;;;;;;;27.08;14.35;;;;;;;4.38;77.47;97257.56;5033359;28;20044;-51
2023/03/12 02:32:36;;;;;;;20.38;13.27;;;;;;;4.41;78.08;97254.59;5033243;28;20039;-50
2023/03/12 02:35:03;;;;;;;23.08;13.43;;;;;;;4.43;77.88;97262.38;5032961;28;20099;-52
2023/03/12 02:37:29;;;;;;;24.52;14.13;;;;;;;4.45;77.74;97245.38;5049080;28;20091;-53
2023/03/12 02:40:01;;;;;;;25.90;13.75;;;;;;;4.49;77.99;97255.66;5051303;28;20033;-47
2023/03/12 02:42:28;;;;;;;25.65;13.93;;;;;;;4.47;77.59;97225.84;5052938;28;20098;-63
2023/03/12 02:44:54;;;;;;;23.45;13.00;;;;;;;4.54;77.61;97222.44;5053487;28;20041;-51
2023/03/12 02:47:19;;;;;;;27.60;14.68;;;;;;;4.55;77.60;97233.88;5053133;28;20035;-53
2023/03/12 02:49:45;;;;;;;24.23;14.52;;;;;;;4.50;78.10;97225.53;5052064;28;20033;-51
2023/03/12 02:52:10;;;;;;;23.95;13.63;;;;;;;4.56;77.91;97219.63;5051409;28;20041;-52
2023/03/12 02:54:36;;;;;;;22.13;13.77;;;;;;;4.60;77.77;97205.13;5037120;28;20440;-54
2023/03/12 02:57:01;;;;;;;21.73;13.40;;;;;;;4.66;77.72;97204.50;5052732;28;20400;-49
2023/03/12 02:59:27;;;;;;;25.05;13.70;;;;;;;4.61;78.09;97204.13;5053016;28;20079;-52
2023/03/12 03:01:55;;;;;;;22.30;12.95;;;;;;;4.64;77.60;97198.53;5052855;28;20120;-50
2023/03/12 03:04:21;;;;;;;19.73;12.43;;;;;;;4.74;77.56;97196.63;5052846;28;20061;-52
2023/03/12 03:06:47;;;;;;;20.55;12.55;;;;;;;4.65;77.68;97184.28;5052637;28;20431;-52
2023/03/12 03:09:13;;;;;;;20.63;12.60;;;;;;;4.62;78.10;97184.59;5052199;28;20063;-54
2023/03/12 03:11:38;;;;;;;24.23;12.90;;;;;;;4.65;78.49;97181.66;5052559;28;20029;-49
2023/03/12 03:14:05;;;;;;;21.05;13.00;;;;;;;4.70;77.98;97166.13;5052251;28;20029;-54
2023/03/12 03:16:32;;;;;;;21.02;13.63;;;;;;;4.88;77.27;97168.75;5037348;28;20037;-50
2023/03/12 03:18:57;;;;;;;21.05;13.75;;;;;;;4.79;77.94;97171.47;5052496;28;20025;-52
2023/03/12 03:21:23;;;;;;;21.88;13.23;;;;;;;4.71;78.35;97165.13;5051691;28;20029;-51
2023/03/12 03:23:49;;;;;;;22.60;13.45;;;;;;;4.75;77.85;97170.97;5052571;28;20362;-49
2023/03/12 03:26:17;;;;;;;19.08;12.60;;;;;;;4.78;78.03;97159.22;5052806;28;20048;-51
2023/03/12 03:28:43;;;;;;;19.67;12.90;;;;;;;4.82;78.16;97160.56;5051319;28;20033;-52
2023/03/12 03:31:08;;;;;;;22.02;13.25;;;;;;;4.78;78.41;97153.91;5032930;28;20470;-51
2023/03/12 03:33:36;;;;;;;25.95;13.68;;;;;;;4.81;78.85;97149.16;5032865;28;20083;-50
2023/03/12 03:36:02;;;;;;;21.77;13.90;;;;;;;4.82;78.33;97145.50;5032493;28;20037;-58
2023/03/12 03:38:29;;;;;;;21.38;13.43;;;;;;;4.84;78.75;97135.56;5049649;28;20040;-49
2023/03/12 03:40:55;;;;;;;20.05;13.90;;;;;;;4.85;78.50;97139.88;5052079;28;20059;-50
2023/03/12 03:43:21;;;;;;;21.90;13.45;;;;;;;4.89;78.50;97145.72;5052371;28;20129;-51
2023/03/12 03:45:47;;;;;;;20.85;14.13;;;;;;;4.85;78.24;97123.16;5051121;28;20367;-50
2023/03/12 03:48:13;;;;;;;24.50;13.88;;;;;;;4.96;77.84;97127.38;5052021;28;20037;-50
2023/03/12 03:50:40;;;;;;;21.75;13.93;;;;;;;4.93;78.07;97125.03;5052040;28;20056;-49
2023/03/12 03:53:07;;;;;;;18.73;13.18;;;;;;;4.97;78.23;97110.50;5049754;28;20029;-52
2023/03/12 03:55:38;;;;;;;22.95;13.70;;;;;;;4.99;78.53;97114.63;5050948;28;20127;-54
2023/03/12 03:58:04;;;;;;;23.40;14.23;;;;;;;4.93;78.26;97109.97;5051915;28;20060;-48
2023/03/12 04:00:30;;;;;;;23.27;14.55;;;;;;;4.73;78.23;97061.63;5036479;28;20029;-48
2023/03/12 04:02:55;;;;;;;25.75;14.93;;;;;;;4.98;78.20;97086.44;5032142;28;20033;-48
2023/03/12 04:05:21;;;;;;;26.15;14.90;;;;;;;4.95;78.23;97091.25;5031821;28;20068;-49
2023/03/12 04:07:47;;;;;;;27.08;16.08;;;;;;;5.00;78.16;97086.31;5030834;28;20112;-50
2023/03/12 04:10:12;;;;;;;25.40;14.32;;;;;;;5.00;78.73;97084.47;5031113;28;20036;-49
2023/03/12 04:12:38;;;;;;;27.75;15.65;;;;;;;5.05;78.02;97075.22;5031935;28;20108;-53
2023/03/12 04:15:04;;;;;;;30.08;15.73;;;;;;;4.90;78.62;97051.94;5044568;28;20028;-61
2023/03/12 04:17:30;;;;;;;27.23;15.63;;;;;;;5.05;78.59;97069.91;5052290;28;20089;-49
2023/03/12 04:19:55;;;;;;;27.75;15.73;;;;;;;5.07;78.58;97052.06;5051611;28;20033;-51
2023/03/12 04:22:21;;;;;;;32.35;16.20;;;;;;;5.09;78.59;97058.84;5040099;28;20038;-50
2023/03/12 04:24:46;;;;;;;30.58;16.55;;;;;;;5.09;79.11;97055.38;5032209;28;20040;-51
2023/03/12 04:27:12;;;;;;;26.75;16.40;;;;;;;5.14;78.70;97048.59;5032935;28;20068;-51
2023/03/12 04:29:39;;;;;;;26.38;16.67;;;;;;;5.03;79.16;97020.50;5035363;28;20021;-50
2023/03/12 04:32:06;;;;;;;26.67;17.10;;;;;;;5.29;78.32;97040.84;5034881;28;20033;-58
2023/03/12 04:34:31;;;;;;;26.25;15.85;;;;;;;5.24;78.68;97029.09;5035701;28;20038;-54
2023/03/12 04:36:57;;;;;;;24.60;14.93;;;;;;;5.29;78.29;97035.56;5035022;28;20045;-52
2023/03/12 04:39:22;;;;;;;28.02;15.32;;;;;;;5.25;78.59;97033.41;5034435;28;20033;-52
2023/03/12 04:41:48;;;;;;;23.08;14.75;;;;;;;5.25;78.10;97034.22;5035424;28;20357;-52
2023/03/12 04:44:14;;;;;;;23.50;15.48;;;;;;;5.22;78.99;97031.88;5037756;28;20033;-51
2023/03/12 04:46:40;;;;;;;21.70;13.05;;;;;;;5.23;78.65;97019.47;5054391;28;20435;-49
2023/03/12 04:49:05;;;;;;;21.90;14.48;;;;;;;5.25;79.07;97023.59;5054452;28;20025;-62
2023/03/12 04:51:31;;;;;;;28.35;15.32;;;;;;;5.34;78.42;97021.00;5055789;28;20040;-50
2023/03/12 04:53:57;;;;;;;25.67;15.15;;;;;;;5.30;78.74;97021.31;5054818;28;20029;-51
2023/03/12 04:56:23;;;;;;;25.40;14.80;;;;;;;5.30;79.47;97018.66;5054962;28;20029;-48
2023/03/12 04:58:50;;;;;;;22.88;14.82;;;;;;;5.39;78.71;97019.50;5054453;28;20028;-53
2023/03/12 05:01:28;;;;;;;26.55;15.60;;;;;;;5.47;78.86;97013.41;5054228;28;20025;-49
2023/03/12 05:03:54;;;;;;;26.50;14.93;;;;;;;5.25;78.37;96975.84;5053160;28;20044;-52
2023/03/12 05:06:21;;;;;;;27.48;16.67;;;;;;;5.42;78.42;97008.56;5054726;28;20099;-50
2023/03/12 05:08:47;;;;;;;26.88;16.77;;;;;;;5.44;78.36;97003.13;5035631;28;20152;-48
2023/03/12 05:11:13;;;;;;;27.40;17.10;;;;;;;5.17;79.25;96957.28;5034173;28;20083;-48
2023/03/12 05:13:39;;;;;;;28.02;16.45;;;;;;;5.42;79.16;96992.66;5034663;28;20068;-50
2023/03/12 05:16:05;;;;;;;26.67;16.88;;;;;;;5.47;78.77;96978.91;5034952;28;20068;-49
2023/03/12 05:21:18;;;;;;;25.98;16.23;;;;;;;5.58;79.21;96975.13;5034645;28;20025;-53
2023/03/12 05:23:44;;;;;;;24.48;15.98;;;;;;;5.64;79.13;96976.28;5034200;28;20033;-50
2023/03/12 05:26:15;;;;;;;25.33;15.23;;;;;;;5.68;78.97;96959.03;5034291;28;20060;-52
2023/03/12 05:28:41;;;;;;;23.30;15.90;;;;;;;5.71;79.00;96974.66;5034696;28;20072;-50
2023/03/12 05:31:09;;;;;;;24.15;14.85;;;;;;;5.56;79.21;96943.44;5035337;28;20108;-49
2023/03/12 05:33:35;;;;;;;20.05;12.50;;;;;;;5.87;78.70;96979.13;5053222;28;20463;-50
2023/03/12 05:36:00;;;;;;;20.70;13.55;;;;;;;5.92;77.57;96965.38;5053978;28;20064;-51
2023/03/12 05:38:26;;;;;;;19.63;14.00;;;;;;;5.62;78.40;96927.84;5053983;28;20111;-52
2023/03/12 05:40:58;;;;;;;20.90;12.95;;;;;;;5.89;78.80;96961.22;5053938;28;20124;-51
2023/03/12 05:43:23;;;;;;;18.48;11.80;;;;;;;5.86;78.76;96950.94;5053011;28;20047;-50
2023/03/12 05:45:49;;;;;;;18.65;12.57;;;;;;;5.88;79.01;96954.25;5053758;28;20021;-51
2023/03/12 05:48:15;;;;;;;18.23;12.07;;;;;;;5.96;78.18;96954.28;5053923;28;20082;-49
2023/03/12 05:50:41;;;;;;;16.00;11.02;;;;;;;6.05;78.21;96960.44;5053859;28;20139;-51
2023/03/12 05:53:06;;;;;;;21.75;12.52;;;;;;;5.99;78.61;96950.44;5052178;28;20052;-49
2023/03/12 05:55:37;;;;;;;16.30;11.23;;;;;;;5.99;79.36;96942.47;5053641;28;20420;-50
2023/03/12 05:58:04;;;;;;;16.30;10.18;;;;;;;6.12;78.71;96942.84;5053503;28;20039;-50
2023/03/12 06:00:30;;;;;;;14.10;9.88;;;;;;;6.09;78.77;96953.81;5053313;28;20037;-50
2023/03/12 06:02:56;;;;;;;15.23;10.55;;;;;;;5.91;79.05;96900.00;5050347;28;20034;-53
2023/03/12 06:05:21;;;;;;;15.50;10.23;;;;;;;6.15;78.53;96937.19;5042171;28;20103;-54
2023/03/12 06:07:46;;;;;;;19.27;10.80;;;;;;;6.01;79.11;96908.63;5043508;28;20021;-53
2023/03/12 06:10:12;;;;;;;19.27;10.32;;;;;;;6.25;78.52;96952.13;5045153;28;20515;-54
2023/03/12 06:12:37;;;;;;;18.05;10.85;;;;;;;6.35;77.95;96955.44;5043290;28;20053;-52
2023/03/12 06:15:04;;;;;;;18.23;12.18;;;;;;;6.23;78.43;96943.47;5041264;28;20108;-53
2023/03/12 06:17:30;;;;;;;19.25;11.77;;;;;;;6.27;78.36;96936.84;5042617;28;20025;-52
2023/03/12 06:19:57;;;;;;;17.85;10.93;;;;;;;6.31;78.11;96922.25;5043829;28;20033;-54
2023/03/12 06:22:22;;;;;;;20.35;12.77;;;;;;;6.28;78.40;96917.25;5042709;28;20029;-54
2023/03/12 06:24:48;;;;;;;20.48;12.35;;;;;;;6.22;78.80;96905.47;5046821;28;20108;-57
2023/03/12 06:27:15;;;;;;;20.73;12.82;;;;;;;6.26;79.02;96919.22;5053302;28;20032;-55
2023/03/12 06:29:40;;;;;;;16.60;11.77;;;;;;;6.35;78.83;96925.38;5044983;28;20329;-56
2023/03/12 06:32:06;;;;;;;20.52;12.60;;;;;;;6.33;79.08;96914.94;5032764;28;20048;-56
2023/03/12 06:34:32;;;;;;;21.02;11.73;;;;;;;6.39;78.60;96927.53;5050257;28;20032;-56
2023/03/12 06:36:58;;;;;;;21.55;12.45;;;;;;;6.36;78.78;96927.03;5040748;28;20025;-58
2023/03/12 06:39:23;;;;;;;17.98;12.90;;;;;;;6.40;79.42;96907.94;5032154;28;20431;-50
2023/03/12 06:41:49;;;;;;;20.27;12.88;;;;;;;6.38;79.43;96927.69;5051829;28;20049;-54
2023/03/12 06:44:14;;;;;;;23.17;13.75;;;;;;;6.40;79.00;96915.91;5051653;28;20036;-59
2023/03/12 06:46:40;;;;;;;20.70;13.25;;;;;;;6.43;79.09;96904.94;5052455;28;20047;-53
2023/03/12 06:49:06;;;;;;;19.80;13.75;;;;;;;6.39;79.17;96902.75;5046053;28;20025;-51
2023/03/12 06:51:31;;;;;;;25.20;14.48;;;;;;;6.24;79.08;96868.94;5030936;28;20850;-53
2023/03/12 06:53:57;;;;;;;20.90;13.38;;;;;;;6.51;78.96;96901.41;5032310;28;20021;-54
2023/03/12 06:56:22;;;;;;;33.50;14.55;;;;;;;6.47;79.16;96884.97;5032489;28;20033;-52
2023/03/12 06:58:48;;;;;;;22.30;14.52;;;;;;;6.58;78.88;96893.59;5031503;28;20439;-54
2023/03/12 07:01:13;;;;;;;24.70;15.48;;;;;;;6.43;78.98;96865.06;5032863;28;20025;-55
2023/03/12 07:03:39;;;;;;;22.73;14.95;;;;;;;6.60;78.89;96894.25;5032750;28;20112;-51
2023/03/12 07:06:13;;;;;;;23.77;15.18;;;;;;;6.68;78.53;96882.78;5032345;28;20456;-54
2023/03/12 07:08:38;;;;;;;23.65;15.45;;;;;;;6.57;78.86;96876.00;5032595;28;20164;-50
2023/03/12 07:11:04;;;;;;;23.30;14.35;;;;;;;6.62;78.88;96876.31;5031849;28;20117;-53
2023/03/12 07:13:29;;;;;;;23.25;15.02;;;;;;;6.65;78.75;96889.25;5032120;28;20408;-53
2023/03/12 07:15:55;;;;;;;25.48;15.45;;;;;;;6.51;78.52;96850.06;5031996;28;20455;-51
2023/03/12 07:18:20;;;;;;;28.83;16.00;;;;;;;6.60;79.13;96868.50;5031595;28;20052;-52
2023/03/12 07:20:46;;;;;;;21.85;14.93;;;;;;;6.67;79.14;96851.88;5031536;28;20040;-55
2023/03/12 07:23:12;;;;;;;23.35;13.77;;;;;;;6.72;78.71;96853.00;5031167;28;20033;-50
2023/03/12 07:25:39;;;;;;;23.75;14.93;;;;;;;6.70;78.80;96841.69;5032358;28;20116;-52
2023/03/12 07:28:06;;;;;;;21.55;14.60;;;;;;;6.71;78.48;96847.88;5031595;28;20030;-51
2023/03/12 07:30:32;;;;;;;22.33;15.07;;;;;;;6.75;78.85;96844.69;5031569;28;20037;-51
2023/03/12 07:33:02;;;;;;;23.48;15.15;;;;;;;6.82;78.47;96834.16;5031942;28;20061;-56
2023/03/12 07:35:28;;;;;;;21.38;14.27;;;;;;;6.72;78.79;96829.06;5031885;28;20059;-53
2023/03/12 07:37:54;;;;;;;21.38;14.77;;;;;;;6.78;78.58;96842.69;5031080;28;20437;-54
2023/03/12 07:40:19;;;;;;;25.58;15.68;;;;;;;6.75;79.04;96839.38;5031122;28;20131;-54
2023/03/12 07:42:45;;;;;;;23.98;15.02;;;;;;;6.74;79.26;96819.06;5031900;28;20228;-59
2023/03/12 07:45:11;;;;;;;22.73;14.93;;;;;;;6.79;79.01;96825.72;5034114;28;20041;-53
2023/03/12 07:47:36;;;;;;;21.73;15.18;;;;;;;6.78;79.33;96816.09;5031464;28;20033;-50
2023/03/12 07:50:02;;;;;;;23.55;15.35;;;;;;;6.83;78.74;96811.06;5030659;28;20029;-52
2023/03/12 07:52:28;;;;;;;21.92;15.35;;;;;;;6.83;79.43;96825.19;5031727;28;20033;-50
2023/03/12 07:54:55;;;;;;;23.50;14.35;;;;;;;6.90;78.34;96798.72;5030624;28;20103;-54
2023/03/12 07:57:21;;;;;;;22.38;13.85;;;;;;;6.94;78.79;96805.34;5031229;28;20125;-50
2023/03/12 07:59:47;;;;;;;22.02;13.77;;;;;;;6.93;78.99;96803.69;5032901;28;20034;-54
2023/03/12 08:02:13;;;;;;;18.23;13.10;;;;;;;6.96;78.80;96792.69;5049842;28;20094;-52
2023/03/12 08:04:38;;;;;;;20.35;12.73;;;;;;;7.08;78.79;96790.47;5054754;28;20338;-56
2023/03/12 08:07:04;;;;;;;17.58;12.50;;;;;;;7.12;78.51;96796.25;5055917;28;20040;-50
2023/03/12 08:09:31;;;;;;;17.67;12.60;;;;;;;7.05;78.46;96785.50;5055528;28;20036;-47
2023/03/12 08:11:56;;;;;;;19.55;12.23;;;;;;;7.07;78.62;96780.81;5055220;28;20021;-50
2023/03/12 08:14:22;;;;;;;17.77;12.90;;;;;;;7.17;78.03;96788.56;5043372;28;20115;-50
2023/03/12 08:16:47;;;;;;;16.42;11.30;;;;;;;7.19;78.12;96781.25;5045669;28;20466;-55
2023/03/12 08:19:13;;;;;;;18.40;11.60;;;;;;;7.14;78.24;96781.78;5043706;28;20439;-52
2023/03/12 08:21:38;;;;;;;19.23;11.93;;;;;;;7.17;78.52;96791.22;5044599;28;20033;-49
2023/03/12 08:24:04;;;;;;;16.30;11.10;;;;;;;7.17;77.96;96786.75;5042665;28;20289;-55
2023/03/12 08:26:29;;;;;;;15.40;10.82;;;;;;;7.13;78.38;96771.31;5044500;28;20107;-49
2023/03/12 08:28:54;;;;;;;18.67;10.75;;;;;;;7.16;78.18;96768.28;5044538;28;20444;-52
2023/03/12 08:31:20;;;;;;;17.08;11.13;;;;;;;7.14;78.22;96762.31;5043475;28;20020;-51
2023/03/12 08:33:45;;;;;;;16.33;12.00;;;;;;;7.10;78.59;96755.72;5044960;28;20029;-51
2023/03/12 08:36:11;;;;;;;17.67;11.32;;;;;;;6.95;78.48;96737.84;5044265;28;20041;-51
2023/03/12 08:38:37;;;;;;;15.43;10.55;;;;;;;7.14;78.50;96751.69;5042632;28;20029;-49
2023/03/12 08:41:03;;;;;;;16.60;10.95;;;;;;;7.12;78.57;96737.72;5034872;28;20382;-54
2023/03/12 08:43:29;;;;;;;14.32;9.88;;;;;;;7.22;78.18;96746.28;5034835;28;20045;-50
2023/03/12 08:45:56;;;;;;;17.52;11.27;;;;;;;7.24;78.15;96744.31;5034514;28;20125;-52
2023/03/12 08:48:22;;;;;;;15.48;10.38;;;;;;;7.25;78.08;96716.69;5034820;28;20045;-50
2023/03/12 08:50:48;;;;;;;16.48;9.90;;;;;;;7.20;78.27;96721.69;5016917;28;20026;-54
2023/03/12 08:53:14;;;;;;;15.35;10.13;;;;;;;7.23;78.05;96726.66;5042028;28;20037;-53
2023/03/12 08:55:39;;;;;;;13.32;10.13;;;;;;;7.25;78.12;96706.03;5041611;28;20034;-55
2023/03/12 08:58:05;;;;;;;15.63;10.95;;;;;;;7.22;78.42;96703.72;5041394;28;20047;-57
2023/03/12 09:00:30;;;;;;;15.75;10.45;;;;;;;7.16;78.66;96694.63;5041856;28;20096;-58
2023/03/12 09:02:57;;;;;;;14.57;10.43;;;;;;;7.24;78.41;96709.72;5043142;28;20025;-56
2023/03/12 09:05:28;;;;;;;16.42;10.77;;;;;;;7.27;78.78;96708.50;5044878;28;20144;-50
2023/03/12 09:07:56;;;;;;;15.20;10.63;;;;;;;7.22;78.76;96695.72;5043161;28;20047;-52
2023/03/12 09:10:22;;;;;;;14.02;10.60;;;;;;;7.28;78.66;96700.34;5044107;28;20029;-54
2023/03/12 09:12:47;;;;;;;15.13;10.02;;;;;;;7.33;78.49;96681.16;5044872;28;20033;-53
2023/03/12 09:15:13;;;;;;;24.85;10.27;;;;;;;7.31;78.28;96689.34;5043453;28;20467;-49
2023/03/12 09:17:39;;;;;;;15.10;10.05;;;;;;;7.31;78.43;96686.69;5054119;28;20064;-53
2023/03/12 09:20:07;;;;;;;20.60;10.82;;;;;;;7.31;78.53;96680.53;5042163;28;20517;-52
2023/03/12 09:22:35;;;;;;;15.93;10.13;;;;;;;7.36;78.02;96672.00;5044209;28;20095;-53
2023/03/12 09:25:03;;;;;;;15.30;10.65;;;;;;;7.26;78.93;96685.56;5042668;28;20068;-55
2023/03/12 09:27:29;;;;;;;13.57;9.75;;;;;;;7.24;78.58;96676.94;5042870;28;20364;-56
2023/03/12 09:29:54;;;;;;;13.13;9.00;;;;;;;7.23;79.31;96678.75;5043337;28;20028;-54
2023/03/12 09:32:20;;;;;;;12.10;8.85;;;;;;;7.24;78.59;96653.84;5044317;28;20028;-52
2023/03/12 09:34:45;;;;;;;11.80;8.88;;;;;;;7.30;78.52;96673.56;5041277;28;20021;-56
2023/03/12 09:37:11;;;;;;;11.68;8.13;;;;;;;7.31;78.61;96673.38;5043615;28;20504;-55
2023/03/12 09:39:36;;;;;;;12.95;8.80;;;;;;;7.28;79.17;96668.44;5040943;28;20248;-52
2023/03/12 09:42:05;;;;;;;11.00;7.95;;;;;;;7.15;78.70;96621.16;5044221;28;20041;-57
2023/03/12 09:44:44;;;;;;;10.48;7.75;;;;;;;7.39;78.24;96631.72;5043781;28;20072;-51
2023/03/12 09:47:30;;;;;;;10.55;7.80;;;;;;;7.33;79.13;96626.13;5043351;28;20104;-51
2023/03/12 09:50:04;;;;;;;11.63;7.60;;;;;;;7.28;79.45;96623.19;5051718;28;20400;-53
2023/03/12 09:52:47;;;;;;;10.63;7.55;;;;;;;7.31;79.42;96620.16;5052448;28;20033;-50
2023/03/12 09:55:17;;;;;;;10.50;7.30;;;;;;;7.37;78.58;96623.94;5047941;28;20411;-52
2023/03/12 09:57:45;;;;;;;9.82;7.28;;;;;;;7.25;78.80;96634.19;5032590;28;20112;-54
2023/03/12 10:00:15;;;;;;;13.30;7.00;;;;;;;7.23;78.78;96627.38;5039435;28;20025;-51
2023/03/12 10:03:11;;;;;;;8.88;7.20;;;;;;;7.29;79.28;96603.53;5051925;28;20558;-53
2023/03/12 10:05:39;;;;;;;;;;;;;;;7.54;78.62;96589.97;5051824;28;20048;-52
2023/03/12 10:08:17;;;;;;;8.57;5.43;;;;;;;7.45;78.08;96601.69;5052773;28;19974;-54
2023/03/12 10:11:07;;;;;;;11.60;6.57;;;;;;;7.39;79.32;96587.31;5053223;28;20185;-51
2023/03/12 10:14:00;;;;;;;8.90;6.63;;;;;;;7.40;79.43;96578.31;5053071;28;20052;-48
2023/03/12 10:16:47;;;;;;;8.73;5.68;;;;;;;7.47;78.71;96575.72;5050375;28;20064;-56
2023/03/12 10:19:22;;;;;;;8.18;5.93;;;;;;;7.45;78.72;96583.91;5043503;28;20118;-52
2023/03/12 10:22:04;;;;;;;6.72;5.70;;;;;;;7.35;78.64;96561.25;5043879;28;20033;-49
2023/03/12 10:24:54;;;;;;;7.72;5.57;;;;;;;7.41;78.88;96560.50;5042593;28;20044;-50
2023/03/12 10:27:22;;;;;;;6.07;4.70;;;;;;;7.27;79.01;96555.00;5042836;28;20033;-65
2023/03/12 10:29:52;;;;;;;7.10;5.10;;;;;;;7.25;79.37;96554.38;5042216;28;20351;-53
2023/03/12 10:32:27;;;;;;;5.57;4.65;;;;;;;7.31;79.45;96556.28;5035621;28;20049;-51
2023/03/12 10:35:02;;;;;;;7.22;5.32;;;;;;;7.37;79.38;96536.09;5047140;28;20032;-51
2023/03/12 10:38:08;;;;;;;5.63;4.47;;;;;;;7.54;78.82;96534.06;5052653;28;20415;-51
2023/03/12 10:40:35;;;;;;;6.00;4.35;;;;;;;7.51;78.07;96533.59;5044580;28;20437;-54
2023/03/12 10:43:02;;;;;;;6.55;4.68;;;;;;;7.36;78.71;96523.81;5050268;28;20045;-61
2023/03/12 10:45:56;;;;;;;6.53;4.60;;;;;;;7.46;79.30;96532.31;5053413;28;20064;-55
2023/03/12 10:48:24;;;;;;;5.88;4.82;;;;;;;7.47;79.10;96530.47;5052872;28;20079;-63
2023/03/12 10:50:59;;;;;;;9.15;4.82;;;;;;;7.35;78.64;96502.69;5038620;28;20460;-52
2023/03/12 10:53:34;;;;;;;7.15;5.18;;;;;;;7.47;79.30;96522.47;5032546;28;20026;-53
2023/03/12 10:56:08;;;;;;;8.30;4.93;;;;;;;7.51;78.91;96522.94;5033290;28;20045;-50
2023/03/12 10:58:45;;;;;;;6.15;5.07;;;;;;;7.46;79.12;96511.03;5032887;28;20499;-52
2023/03/12 11:01:27;;;;;;;6.70;4.82;;;;;;;7.51;79.22;96512.31;5032515;28;20044;-51
2023/03/12 11:04:08;;;;;;;6.22;5.35;;;;;;;7.56;79.14;96515.22;5031799;28;20120;-59
2023/03/12 11:06:34;;;;;;;6.18;5.00;;;;;;;7.53;79.14;96510.28;5032692;28;20091;-53
2023/03/12 11:09:08;;;;;;;7.25;5.25;;;;;;;7.44;79.26;96481.09;5032611;28;20037;-51
2023/03/12 11:11:35;;;;;;;7.05;5.40;;;;;;;7.57;78.87;96495.56;5032187;28;20291;-52
2023/03/12 11:14:14;;;;;;;5.68;5.07;;;;;;;7.50;79.10;96468.91;5032696;28;20487;-51
2023/03/12 11:16:40;;;;;;;8.70;5.65;;;;;;;7.58;79.31;96494.56;5032525;28;20022;-51
2023/03/12 11:19:06;;;;;;;7.82;5.88;;;;;;;7.61;79.30;96496.88;5032559;28;20463;-51
2023/03/12 11:21:37;;;;;;;7.35;5.07;;;;;;;7.69;79.09;96495.91;5032395;28;20459;-48
2023/03/12 11:24:06;;;;;;;9.82;5.25;;;;;;;7.68;78.74;96503.09;5036116;28;20036;-53
2023/03/12 11:26:43;;;;;;;5.93;4.85;;;;;;;7.65;79.24;96491.97;5052516;28;20098;-51
2023/03/12 11:29:11;;;;;;;7.45;4.85;;;;;;;7.63;78.94;96483.34;5052025;28;20415;-53
2023/03/12 11:31:43;;;;;;;6.05;5.22;;;;;;;7.59;79.30;96483.72;5052192;28;20044;-51
2023/03/12 11:34:21;;;;;;;6.30;5.13;;;;;;;7.72;79.23;96477.72;5052007;28;20121;-50
2023/03/12 11:36:52;;;;;;;8.95;5.38;;;;;;;7.66;79.11;96494.47;5051750;28;20443;-53
2023/03/12 11:39:37;;;;;;;8.60;5.32;;;;;;;7.48;78.99;96502.88;5051722;28;20033;-49